createdAt,value
2019-05-12T00:00:28.578Z,0.90
2019-05-12T00:05:13.398Z,0.90
2019-05-12T00:09:59.167Z,0.90
2019-05-12T00:14:45.221Z,0.90
2019-05-12T00:19:31.011Z,1.00
2019-05-12T00:24:18.647Z,1.00
2019-05-12T00:29:04.200Z,1.27
2019-05-12T00:33:50.471Z,0.90
2019-05-12T00:38:38.116Z,0.80
2019-05-12T00:43:23.697Z,0.80
2019-05-12T00:48:09.873Z,0.80
2019-05-12T00:52:57.939Z,0.77
2019-05-12T00:57:43.184Z,0.60
2019-05-12T01:02:28.923Z,0.80
2019-05-12T01:07:15.265Z,1.10
2019-05-12T01:12:01.101Z,1.00
2019-05-12T01:16:48.634Z,1.17
2019-05-12T01:21:35.080Z,1.30
2019-05-12T01:26:20.791Z,1.07
2019-05-12T01:31:08.584Z,1.03
2019-05-12T01:35:54.465Z,1.30
2019-05-12T01:40:40.253Z,1.27
2019-05-12T01:45:28.448Z,1.20
2019-05-12T01:50:13.668Z,1.10
2019-05-12T01:54:59.368Z,0.90
2019-05-12T01:59:45.160Z,1.07
2019-05-12T02:04:32.499Z,1.00
2019-05-12T02:09:20.273Z,1.20
2019-05-12T02:14:09.010Z,1.27
2019-05-12T02:18:54.246Z,1.60
2019-05-12T02:23:39.988Z,1.40
2019-05-12T02:28:25.705Z,1.60
2019-05-12T02:33:11.401Z,1.73
2019-05-12T02:37:57.147Z,2.03
2019-05-12T02:42:46.032Z,1.87
2019-05-12T02:47:30.300Z,1.77
2019-05-12T02:52:16.612Z,1.87
2019-05-12T02:57:04.501Z,1.93
2019-05-12T03:01:54.841Z,1.90
2019-05-12T03:06:40.954Z,1.80
2019-05-12T03:11:28.967Z,2.00
2019-05-12T03:16:15.200Z,2.27
2019-05-12T03:21:01.282Z,2.87
2019-05-12T03:25:46.975Z,2.90
2019-05-12T03:30:38.538Z,3.57
2019-05-12T03:35:20.038Z,3.47
2019-05-12T03:40:06.340Z,3.63
2019-05-12T03:44:54.611Z,3.33
2019-05-12T03:49:39.388Z,3.60
2019-05-12T03:54:25.155Z,3.30
2019-05-12T03:59:10.838Z,2.90
2019-05-12T04:03:56.578Z,2.77
2019-05-12T04:08:45.244Z,3.27
2019-05-12T04:13:29.669Z,3.90
2019-05-12T04:18:16.252Z,4.00
2019-05-12T04:23:05.915Z,3.83
2019-05-12T04:27:49.973Z,3.40
2019-05-12T04:32:35.988Z,3.47
2019-05-12T04:37:24.784Z,3.57
2019-05-12T04:42:09.254Z,3.37
2019-05-12T04:46:55.560Z,3.73
2019-05-12T04:51:44.994Z,2.97
2019-05-12T04:56:29.277Z,2.40
2019-05-12T05:01:15.758Z,2.83
2019-05-12T05:06:04.220Z,2.67
2019-05-12T05:10:48.978Z,3.17
2019-05-12T05:15:35.527Z,3.70
2019-05-12T05:20:21.254Z,4.70
2019-05-12T05:25:07.099Z,4.37
2019-05-12T05:29:54.371Z,5.67
2019-05-12T05:34:45.095Z,3.20
2019-05-12T05:39:27.904Z,3.33
2019-05-12T05:44:13.974Z,3.23
2019-05-12T05:48:59.860Z,2.83
2019-05-12T05:53:49.764Z,2.00
2019-05-12T05:58:33.989Z,1.30
2019-05-12T06:03:23.385Z,1.33
2019-05-12T06:08:09.456Z,1.30
2019-05-12T06:12:54.845Z,1.90
2019-05-12T06:17:40.680Z,2.13
2019-05-12T06:22:26.335Z,2.40
2019-05-12T06:27:16.095Z,2.80
2019-05-12T06:32:00.040Z,2.70
2019-05-12T06:36:46.871Z,3.10
2019-05-12T06:41:33.602Z,2.80
2019-05-12T06:46:22.691Z,3.30
2019-05-12T06:51:09.134Z,3.70
2019-05-12T06:55:54.949Z,2.53
2019-05-12T07:00:40.802Z,2.50
2019-05-12T07:05:27.974Z,2.50
2019-05-12T07:10:35.144Z,2.63
2019-05-12T07:15:03.823Z,2.50
2019-05-12T07:19:54.780Z,3.40
2019-05-12T07:24:40.960Z,3.87
2019-05-12T07:29:24.905Z,3.63
2019-05-12T07:34:13.504Z,3.73
2019-05-12T07:39:10.199Z,3.50
2019-05-12T07:44:00.834Z,3.00
2019-05-12T07:48:50.837Z,2.30
2019-05-12T07:53:34.522Z,1.30
2019-05-12T07:58:23.743Z,2.07
2019-05-12T08:03:16.163Z,2.53
2019-05-12T08:08:00.653Z,4.43
2019-05-12T08:12:44.659Z,2.60
2019-05-12T08:17:33.559Z,2.77
2019-05-12T08:22:18.794Z,2.77
2019-05-12T08:27:06.699Z,2.03
2019-05-12T08:31:54.830Z,1.90
2019-05-12T08:36:44.923Z,2.23
2019-05-12T08:41:28.066Z,1.93
2019-05-12T08:46:15.700Z,2.70
2019-05-12T08:51:05.385Z,2.30
2019-05-12T08:55:48.708Z,2.60
2019-05-12T09:00:46.427Z,2.77
2019-05-12T09:05:34.524Z,2.70
2019-05-12T09:10:16.952Z,3.27
2019-05-12T09:15:04.768Z,3.50
2019-05-12T09:19:55.090Z,3.43
2019-05-12T09:24:37.799Z,2.80
2019-05-12T09:29:25.270Z,3.20
2019-05-12T09:34:12.017Z,3.43
2019-05-12T09:39:01.569Z,3.00
2019-05-12T09:43:50.398Z,2.77
2019-05-12T09:48:33.967Z,2.70
2019-05-12T09:53:19.922Z,2.80
2019-05-12T09:58:05.929Z,2.87
2019-05-12T10:02:59.025Z,3.13
2019-05-12T10:07:39.423Z,2.80
2019-05-12T10:12:29.356Z,3.20
2019-05-12T10:17:14.221Z,3.43
2019-05-12T10:22:00.114Z,3.30
2019-05-12T10:26:49.585Z,3.87
2019-05-12T10:31:35.588Z,3.37
2019-05-12T10:36:21.261Z,3.57
2019-05-12T10:41:07.341Z,4.80
2019-05-12T10:45:53.778Z,4.43
2019-05-12T10:50:40.085Z,4.70
2019-05-12T10:55:25.862Z,4.90
2019-05-12T11:00:19.793Z,5.70
2019-05-12T11:05:02.609Z,5.93
2019-05-12T11:09:48.496Z,5.90
2019-05-12T11:14:34.620Z,6.87
2019-05-12T11:19:20.713Z,6.30
2019-05-12T11:24:06.648Z,5.80
2019-05-12T11:28:53.199Z,4.70
2019-05-12T11:33:39.604Z,4.37
2019-05-12T11:38:25.584Z,5.33
2019-05-12T11:43:14.053Z,3.50
2019-05-12T11:48:05.935Z,3.57
2019-05-12T11:52:50.996Z,3.30
2019-05-12T11:57:35.794Z,3.60
2019-05-12T12:02:28.306Z,4.00
2019-05-12T12:07:09.731Z,3.73
2019-05-12T12:12:02.487Z,4.33
2019-05-12T12:16:49.977Z,4.10
2019-05-12T12:21:34.230Z,3.43
2019-05-12T12:26:30.353Z,4.50
2019-05-12T12:31:15.799Z,3.87
2019-05-12T12:36:01.582Z,4.33
2019-05-12T12:40:47.520Z,4.90
2019-05-12T12:45:43.435Z,4.37
2019-05-12T12:50:30.654Z,3.60
2019-05-12T12:55:17.067Z,3.70
2019-05-12T13:00:03.833Z,4.73
2019-05-12T13:04:50.565Z,3.50
2019-05-12T13:09:36.766Z,3.80
2019-05-12T13:14:23.445Z,2.70
2019-05-12T13:19:13.151Z,2.90
2019-05-12T13:23:57.653Z,3.60
2019-05-12T13:28:47.466Z,2.60
2019-05-12T13:33:30.945Z,2.20
2019-05-12T13:38:16.657Z,2.07
2019-05-12T13:43:03.874Z,0.90
2019-05-12T13:47:50.013Z,0.70
2019-05-12T13:52:35.961Z,1.30
2019-05-12T13:57:23.601Z,0.50
2019-05-12T14:02:13.991Z,0.60
2019-05-12T14:06:57.693Z,0.90
2019-05-12T14:11:43.831Z,0.90
2019-05-12T14:16:29.927Z,1.03
2019-05-12T14:21:16.113Z,1.50
2019-05-12T14:26:02.235Z,1.73
2019-05-12T14:30:51.623Z,2.00
2019-05-12T14:35:40.579Z,2.60
2019-05-12T14:40:29.976Z,2.30
2019-05-12T14:45:14.063Z,2.13
2019-05-12T14:50:00.677Z,1.40
2019-05-12T14:54:46.619Z,1.47
2019-05-12T14:59:39.221Z,1.50
2019-05-12T15:04:27.844Z,1.10
2019-05-12T15:09:11.419Z,1.40
2019-05-12T15:13:56.446Z,1.00
2019-05-12T15:18:46.598Z,1.10
2019-05-12T15:23:37.080Z,1.50
2019-05-12T15:28:17.820Z,1.40
2019-05-12T15:33:04.485Z,1.07
2019-05-12T15:37:52.906Z,0.80
2019-05-12T15:42:38.216Z,1.57
2019-05-12T15:47:29.575Z,1.20
2019-05-12T15:52:14.051Z,1.30
2019-05-12T15:56:59.467Z,1.60
2019-05-12T16:01:45.618Z,1.60
2019-05-12T16:06:31.515Z,2.47
2019-05-12T16:11:17.601Z,2.60
2019-05-12T16:16:06.578Z,2.20
2019-05-12T16:20:53.453Z,2.57
2019-05-12T16:25:38.957Z,2.37
2019-05-12T16:30:27.081Z,2.40
2019-05-12T16:35:14.514Z,3.00
2019-05-12T16:40:01.327Z,3.20
2019-05-12T16:44:47.157Z,2.57
2019-05-12T16:49:34.785Z,3.00
2019-05-12T16:54:21.215Z,3.63
2019-05-12T16:59:15.614Z,4.23
2019-05-12T17:03:54.889Z,4.33
2019-05-12T17:08:40.761Z,4.23
2019-05-12T17:13:26.643Z,5.30
2019-05-12T17:18:16.031Z,7.80
2019-05-12T17:23:03.444Z,7.47
2019-05-12T17:27:49.225Z,5.40
2019-05-12T17:32:35.187Z,4.60
2019-05-12T17:37:23.746Z,3.97
2019-05-12T17:42:14.813Z,4.27
2019-05-12T17:46:58.966Z,4.37
2019-05-12T17:51:44.938Z,4.60
2019-05-12T17:56:34.074Z,4.70
2019-05-12T18:01:22.994Z,4.87
2019-05-12T18:06:06.138Z,4.20
2019-05-12T18:10:54.274Z,4.13
2019-05-12T18:15:39.931Z,4.10
2019-05-12T18:20:25.871Z,4.40
2019-05-12T18:25:14.351Z,5.10
2019-05-12T18:29:59.642Z,5.23
2019-05-12T18:34:45.742Z,6.17
2019-05-12T18:39:31.632Z,6.20
2019-05-12T18:44:28.862Z,6.60
2019-05-12T18:49:12.337Z,7.47
2019-05-12T18:53:53.979Z,7.70
2019-05-12T18:58:41.357Z,7.07
2019-05-12T19:03:27.511Z,6.63
2019-05-12T19:08:14.083Z,6.60
2019-05-12T19:13:02.035Z,5.67
2019-05-12T19:17:47.940Z,5.20
2019-05-12T19:22:34.212Z,5.97
2019-05-12T19:27:20.976Z,5.13
2019-05-12T19:32:06.896Z,5.73
2019-05-12T19:36:53.056Z,5.90
2019-05-12T19:41:39.023Z,5.90
2019-05-12T19:46:25.085Z,6.00
2019-05-12T19:51:21.832Z,5.60
2019-05-12T19:55:58.431Z,5.60
2019-05-12T20:00:44.645Z,5.70
2019-05-12T20:05:30.711Z,5.87
2019-05-12T20:10:17.025Z,4.93
2019-05-12T20:15:04.048Z,6.27
2019-05-12T20:19:50.121Z,5.63
2019-05-12T20:24:35.935Z,5.77
2019-05-12T20:29:26.532Z,5.30
2019-05-12T20:34:11.100Z,5.20
2019-05-12T20:38:57.406Z,4.37
2019-05-12T20:43:44.302Z,5.40
2019-05-12T20:48:31.308Z,6.07
2019-05-12T20:53:24.721Z,6.40
2019-05-12T20:58:05.136Z,5.43
2019-05-12T21:02:53.938Z,5.67
2019-05-12T21:07:41.401Z,5.60
2019-05-12T21:12:27.288Z,4.73
2019-05-12T21:17:15.815Z,5.20
2019-05-12T21:22:00.659Z,4.47
2019-05-12T21:26:46.496Z,4.60
2019-05-12T21:31:33.741Z,4.13
2019-05-12T21:36:24.492Z,4.40
2019-05-12T21:41:07.847Z,4.73
2019-05-12T21:45:54.503Z,5.27
2019-05-12T21:50:40.317Z,4.43
2019-05-12T21:55:26.708Z,4.00
2019-05-12T22:00:26.271Z,4.43
2019-05-12T22:05:14.036Z,4.40
2019-05-12T22:09:59.731Z,4.83
2019-05-12T22:14:46.287Z,3.70
2019-05-12T22:19:35.124Z,4.27
2019-05-12T22:24:27.556Z,5.30
2019-05-12T22:29:07.298Z,5.07
2019-05-12T22:33:56.274Z,5.37
2019-05-12T22:38:40.403Z,4.50
2019-05-12T22:43:26.150Z,6.00
2019-05-12T22:48:11.955Z,7.37
2019-05-12T22:52:57.770Z,6.17
2019-05-12T22:57:43.626Z,4.80
2019-05-12T23:02:30.197Z,5.43
2019-05-12T23:07:19.152Z,6.13
2019-05-12T23:12:04.187Z,6.40
2019-05-12T23:16:50.293Z,6.10
2019-05-12T23:21:35.984Z,5.70
2019-05-12T23:26:24.431Z,5.13
2019-05-12T23:31:09.643Z,6.30
2019-05-12T23:35:55.406Z,6.10
2019-05-12T23:40:43.242Z,6.43
2019-05-12T23:45:28.380Z,6.20
2019-05-12T23:50:14.430Z,5.20
2019-05-12T23:55:00.176Z,5.97
2019-05-12T23:59:45.970Z,6.20
